Flight Track Log - Related Links

Times and Time Zones

All times are in EDT time to prevent confusion due to time zone crossing. See the SKW4557 flight status page for this flight to view local times or setup timezone preferences in your user account.


Time Position Orientation Groundspeed Altitude Reporting Facility
EDT Latitude Longitude Course Direction KTS MPH feet Rate Location/Type
Sun 01:20:54 PM 38.7833 -90.4500 303° West 189 217 2,700  Level Gateway (St. Louis) TRACON
Sun 01:21:34 PM 38.7975 -90.4956 292° West 206 237 3,900 2,412 Climbing Kansas City Center
Sun 01:22:36 PM 38.8178 -90.5725 289° West 223 257 6,800 3,000 Climbing Kansas City Center
Sun 01:23:00 PM 38.6837 -90.6175 300° West  Level FlightAware Approximate
Sun 01:23:38 PM 38.8433 -90.6667 289° West 232 267 10,100  Level Kansas City Center
Sun 01:24:00 PM 38.7373 -90.7381 300° West  Level FlightAware Approximate
Sun 01:24:40 PM 38.8633 -90.7475 288° West 237 273 12,200  Level Kansas City Center
Sun 01:25:00 PM 38.7975 -90.8536 305° West  Level FlightAware Approximate
Sun 01:25:42 PM 38.8864 -90.8372 288° West 257 296 14,500  Level Kansas City Center
Sun 01:26:00 PM 38.8590 -90.9680 303° West  Level FlightAware Approximate
Sun 01:26:43 PM 38.9094 -90.9275 288° West 265 305 16,700  Level Kansas City Center
Sun 01:27:45 PM 38.9339 -91.0214 289° West 273 314 18,400 1,790 Climbing Kansas City Center
Sun 01:28:47 PM 38.9581 -91.1192 288° West 283 326 20,400 1,839 Climbing Kansas City Center
Sun 01:29:49 PM 38.9794 -91.2203 285° West 289 333 22,200 1,790 Climbing Kansas City Center
Sun 01:30:51 PM 38.9989 -91.3481 281° West 297 342 24,100 1,645 Climbing Kansas City Center
Sun 01:31:53 PM 39.0153 -91.4572 281° West 305 351 25,600 1,403 Climbing Kansas City Center
Sun 01:32:55 PM 39.0325 -91.5686 281° West 312 359 27,000 1,317 Climbing Kansas City Center
Sun 01:33:56 PM 39.0497 -91.6831 281° West 319 367 28,300 1,171 Climbing Kansas City Center
Sun 01:34:58 PM 39.0664 -91.7964 281° West 321 369 29,400 1,065 Climbing Kansas City Center
Sun 01:36:00 PM 39.0833 -91.9117 281° West 323 372 30,500 968 Climbing Kansas City Center
Sun 01:37:02 PM 39.1044 -92.0575 281° West 332 382 31,400 774 Climbing Kansas City Center
Sun 01:38:04 PM 39.1206 -92.1822 279° West 341 392 32,100 726 Climbing Kansas City Center
Sun 01:39:06 PM 39.1294 -92.3136 275° West 352 405 32,900 823 Climbing Kansas City Center
Sun 01:40:08 PM 39.1392 -92.4469 275° West 362 417 33,800 532 Climbing Kansas City Center
Sun 01:41:10 PM 39.1486 -92.5806 275° West 368 423 34,000 97 Climbing Kansas City Center
Sun 01:42:12 PM 39.1594 -92.7158 276° West 375 432 34,000  Level Kansas City Center
Sun 01:43:13 PM 39.1703 -92.8875 275° West 388 447 34,000  Level Kansas City Center
Sun 01:44:15 PM 39.1806 -93.0256 276° West 391 450 34,000  Level Kansas City Center
Sun 01:45:17 PM 39.1900 -93.1622 275° West 387 445 34,000  Level Kansas City Center
Sun 01:46:19 PM 39.1986 -93.2978 275° West 385 443 34,000  Level Kansas City Center
Sun 01:47:21 PM 39.2086 -93.4508 275° West 381 438 34,000  Level Kansas City Center
Sun 01:48:23 PM 39.2167 -93.5803 275° West 378 435 34,000  Level Kansas City Center
Sun 01:49:25 PM 39.2258 -93.7086 275° West 376 433 34,000  Level Kansas City Center
Sun 01:50:26 PM 39.2342 -93.8586 274° West 376 433 34,000  Level Kansas City Center
Sun 01:51:28 PM 39.2425 -93.9883 275° West 378 435 34,000  Level Kansas City Center
Sun 01:52:30 PM 39.2522 -94.1425 275° West 386 444 34,000  Level Kansas City Center
Sun 01:53:32 PM 39.2594 -94.2747 274° West 388 447 34,000  Level Kansas City Center
Sun 01:54:34 PM 39.2686 -94.4311 274° West 391 450 34,000  Level Kansas City Center
Sun 01:55:36 PM 39.2767 -94.5661 274° West 394 453 34,000  Level Kansas City Center
Sun 01:56:38 PM 39.2858 -94.7236 274° West 394 453 34,000  Level Kansas City Center
Sun 01:57:39 PM 39.2883 -94.8600 271° West 397 457 34,000  Level Kansas City Center
Sun 01:58:41 PM 39.2906 -95.0197 271° West 400 460 34,000  Level Kansas City Center
Sun 01:59:46 PM 39.2925 -95.1686 271° West 399 459 34,000  Level Kansas City Center
Sun 02:00:47 PM 39.2956 -95.3208 272° West 396 456 34,000  Level Kansas City Center
Sun 02:01:49 PM 39.2978 -95.4650 271° West 395 455 34,000  Level Kansas City Center
Sun 02:02:51 PM 39.2992 -95.6000 271° West 395 455 34,000  Level Kansas City Center
Sun 02:03:53 PM 39.3000 -95.7347 271° West 394 453 34,000  Level Kansas City Center
Sun 02:04:55 PM 39.3011 -95.8931 271° West 398 458 34,000  Level Kansas City Center
Sun 02:05:56 PM 39.3028 -96.0292 271° West 396 456 34,000  Level Kansas City Center
Sun 02:06:58 PM 39.3033 -96.1753 270° West 396 456 34,000  Level Kansas City Center
Sun 02:08:00 PM 39.3042 -96.3164 270° West 395 455 34,000  Level Kansas City Center
Sun 02:09:02 PM 39.3036 -96.4581 270° West 397 457 34,000  Level Kansas City Center
Sun 02:10:04 PM 39.3053 -96.6197 271° West 398 458 34,000  Level Kansas City Center
Sun 02:11:05 PM 39.3203 -96.7758 277° West 395 455 34,000  Level Kansas City Center
Sun 02:12:07 PM 39.3364 -96.9114 279° West 396 456 34,000  Level Kansas City Center
Sun 02:13:09 PM 39.3522 -97.0467 279° West 397 457 34,000  Level Kansas City Center
Sun 02:14:11 PM 39.3692 -97.2053 278° West 400 460 34,000  Level Kansas City Center
Sun 02:15:12 PM 39.3844 -97.3414 278° West 400 460 34,000  Level Kansas City Center
Sun 02:16:14 PM 39.4019 -97.5008 278° West 401 461 34,000  Level Kansas City Center
Sun 02:17:16 PM 39.4189 -97.6400 279° West 404 465 34,000  Level Kansas City Center
Sun 02:18:18 PM 39.4342 -97.7853 278° West 406 467 34,000  Level Kansas City Center
Sun 02:19:20 PM 39.4506 -97.9389 278° West 408 470 34,000  Level Kansas City Center
Sun 02:20:21 PM 39.4667 -98.1017 277° West 409 471 34,000  Level Kansas City Center
Sun 02:21:23 PM 39.4828 -98.2528 278° West 409 471 34,000  Level Kansas City Center
Sun 02:22:25 PM 39.4953 -98.3719 278° West 407 468 34,000  Level Kansas City Center
Sun 02:23:16 PM 39.5072 -98.4892 278° West 414 476 34,000  Level Denver Center
Sun 02:24:18 PM 39.5242 -98.6669 277° West 414 476 34,000  Level Denver Center
Sun 02:25:19 PM 39.5364 -98.7858 278° West 415 478 34,000  Level Denver Center
Sun 02:26:34 PM 39.5564 -98.9931 277° West 413 475 34,000  Level Denver Center
Sun 02:27:36 PM 39.5706 -99.1419 277° West 414 476 34,000  Level Denver Center
Sun 02:28:37 PM 39.5872 -99.3206 277° West 414 476 34,000  Level Denver Center
Sun 02:29:39 PM 39.6008 -99.4714 277° West 418 481 34,000  Level Denver Center
Sun 02:30:41 PM 39.6156 -99.6219 277° West 421 484 34,000  Level Denver Center
Sun 02:31:43 PM 39.6289 -99.7711 277° West 418 481 34,000  Level Denver Center
Sun 02:32:44 PM 39.6422 -99.9217 277° West 420 483 34,000  Level Denver Center
Sun 02:33:46 PM 39.6556 -100.0817 276° West 423 487 34,000  Level Denver Center
Sun 02:34:48 PM 39.6689 -100.2267 277° West 424 488 34,000  Level Denver Center
Sun 02:35:50 PM 39.6831 -100.3972 276° West 426 490 34,000  Level Denver Center
Sun 02:36:51 PM 39.6947 -100.5431 276° West 425 489 34,000  Level Denver Center
Sun 02:37:53 PM 39.7094 -100.7158 276° West 429 494 34,000  Level Denver Center
Sun 02:38:55 PM 39.7211 -100.8633 276° West 430 495 34,000  Level Denver Center
Sun 02:39:56 PM 39.7350 -101.0372 276° West 431 496 34,000  Level Denver Center
Sun 02:40:58 PM 39.7464 -101.1883 276° West 435 501 34,000  Level Denver Center
Sun 02:42:00 PM 39.7583 -101.3392 276° West 437 503 34,000  Level Denver Center
Sun 02:43:01 PM 39.7711 -101.5158 275° West 440 506 34,000  Level Denver Center
Sun 02:44:03 PM 39.7822 -101.6658 276° West 437 503 34,000  Level Denver Center
Sun 02:45:05 PM 39.7944 -101.8433 275° West 439 505 34,000  Level Denver Center
Sun 02:46:06 PM 39.8058 -101.9944 276° West 439 505 34,000  Level Denver Center
Sun 02:47:08 PM 39.8158 -102.1475 275° West 441 507 34,000  Level Denver Center
Sun 02:48:10 PM 39.8286 -102.3247 275° West 441 507 34,000  Level Denver Center
Sun 02:49:12 PM 39.8383 -102.4756 275° West 437 503 34,000  Level Denver Center
Sun 02:50:13 PM 39.8506 -102.6556 275° West 446 513 34,000  Level Denver Center
Sun 02:51:15 PM 39.8592 -102.8089 274° West 446 513 34,000  Level Denver Center
Sun 02:52:17 PM 39.8708 -102.9872 275° West 443 510 34,000  Level Denver Center
Sun 02:53:18 PM 39.8794 -103.1400 274° West 442 509 34,000  Level Denver Center
Sun 02:54:20 PM 39.8894 -103.2928 275° West 442 509 34,000  Level Denver Center
Sun 02:55:22 PM 39.8994 -103.4669 274° West 443 510 34,000  Level Denver Center
Sun 02:56:23 PM 39.9078 -103.6175 274° West 439 505 34,000  Level Denver Center
Sun 02:57:25 PM 39.9181 -103.8053 274° West 456 525 34,000  Level Denver Center
Sun 02:58:27 PM 39.9247 -103.9614 273° West 437 503 34,000  Level Denver Center
Sun 02:59:29 PM 39.9347 -104.1183 275° West 436 502 34,000  Level Denver Center
Sun 03:00:30 PM 39.9428 -104.2867 274° West 435 501 34,000  Level Denver Center
Sun 03:01:32 PM 39.9514 -104.4419 274° West 434 499 34,000  Level Denver Center
Sun 03:02:34 PM 39.9597 -104.6089 274° West 433 498 34,000  Level Denver Center
Sun 03:03:36 PM 39.9672 -104.7639 274° West 435 501 34,000  Level Denver Center
Sun 03:04:37 PM 39.9742 -104.9294 273° West 430 495 34,000  Level Denver Center
Sun 03:05:39 PM 39.9794 -105.0825 273° West 425 489 34,000  Level Denver Center
Sun 03:06:41 PM 39.9872 -105.2342 274° West 421 484 34,000  Level Denver Center
Sun 03:07:43 PM 39.9939 -105.3997 273° West 425 489 34,000  Level Denver Center
Sun 03:08:44 PM 40.0019 -105.5519 274° West 423 487 34,000  Level Denver Center
Sun 03:09:46 PM 40.0058 -105.6817 272° West 424 488 34,000  Level Denver Center
Sun 03:10:48 PM 40.0097 -105.8511 272° West 407 468 34,000  Level Denver Center
Sun 03:11:50 PM 40.0161 -106.0031 273° West 416 479 34,000  Level Denver Center
Sun 03:12:52 PM 40.0211 -106.1553 273° West 422 486 34,000  Level Denver Center
Sun 03:13:54 PM 40.0272 -106.3383 273° West 422 486 34,000  Level Denver Center
Sun 03:14:56 PM 40.0322 -106.4917 272° West 424 488 34,000 -146 Level Denver Center
Sun 03:15:57 PM 40.0367 -106.6431 272° West 422 486 33,700 -683 Descending Denver Center
Sun 03:16:59 PM 40.0419 -106.8150 272° West 424 488 32,600 -823 Descending Denver Center
Sun 03:18:01 PM 40.0461 -106.9622 272° West 424 488 32,000 -290 Descending Denver Center
Sun 03:19:03 PM 40.0508 -107.1344 272° West 426 490 32,000  Level Denver Center
Sun 03:20:17 PM 40.0542 -107.2811 272° West 423 487 32,000  Level Denver Center
Sun 03:21:19 PM 40.0586 -107.4781 272° West 425 489 32,000  Level Denver Center
Sun 03:22:21 PM 40.0631 -107.6242 272° West 423 487 32,000  Level Denver Center
Sun 03:23:23 PM 40.0667 -107.7961 272° West 425 489 32,000  Level Denver Center
Sun 03:24:25 PM 40.0694 -107.9417 271° West 423 487 32,000  Level Denver Center
Sun 03:25:26 PM 40.0772 -108.1103 274° West 419 482 32,000  Level Denver Center
Sun 03:26:28 PM 40.0831 -108.2564 273° West 422 486 32,000  Level Denver Center
Sun 03:27:30 PM 40.0903 -108.4264 273° West 421 484 32,000  Level Denver Center
Sun 03:28:32 PM 40.0958 -108.5464 274° West 421 484 32,000  Level Denver Center
Sun 03:29:34 PM 40.1047 -108.7392 274° West 419 482 32,000  Level Denver Center
Sun 03:30:36 PM 40.1089 -108.8847 272° West 421 484 32,000  Level Denver Center
Sun 03:31:01 PM 40.1117 -108.9572 273° West 421 484 32,000  Level Salt Lake Center
Sun 03:32:03 PM 40.1169 -109.1014 273° West 419 482 32,000  Level Salt Lake Center
Sun 03:32:40 PM 40.1197 -109.1975 272° West 417 480 32,000  Level Denver Center
Sun 03:33:41 PM 40.1261 -109.3664 273° West 417 480 32,000  Level Denver Center
Sun 03:34:06 PM 40.1278 -109.4147 273° West 418 481 32,000  Level Salt Lake Center
Sun 03:35:08 PM 40.1328 -109.5825 272° West 416 479 32,000  Level Salt Lake Center
Sun 03:36:09 PM 40.1381 -109.7272 273° West 418 481 32,000  Level Salt Lake Center
Sun 03:37:11 PM 40.1419 -109.8717 272° West 417 480 32,000  Level Salt Lake Center
Sun 03:38:12 PM 40.1469 -110.0414 272° West 418 481 32,000  Level Salt Lake Center
Sun 03:39:14 PM 40.1497 -110.1847 271° West 414 476 32,000  Level Salt Lake Center
Sun 03:40:16 PM 40.1483 -110.3517 269° West 413 475 32,000  Level Salt Lake Center
Sun 03:41:17 PM 40.1458 -110.4961 269° West 415 478 32,000  Level Salt Lake Center
Sun 03:42:19 PM 40.1461 -110.6400 270° West 415 478 32,000 -1,268 Level Salt Lake Center
Sun 03:43:20 PM 40.1422 -110.8078 268° West 414 476 29,400 -2,732 Descending Salt Lake Center
Sun 03:44:22 PM 40.1417 -110.9706 270° West 417 480 26,400 -2,780 Descending Salt Lake Center
Sun 03:45:23 PM 40.1392 -111.1183 269° West 409 471 23,700 -2,537 Descending Salt Lake Center
Sun 03:46:25 PM 40.1381 -111.2531 269° West 379 436 21,200 -2,390 Descending Salt Lake Center
Sun 03:47:26 PM 40.1347 -111.3797 268° West 357 411 18,800 -2,098 Descending Salt Lake Center
Sun 03:48:28 PM 40.1336 -111.5022 269° West 343 395 16,900 -1,514 Descending Salt Lake Center
Sun 03:49:17 PM 40.1494 -111.6111 281° West 319 367 16,000 -600 Descending Salt Lake Center
Sun 03:50:18 PM 40.1922 -111.7061 301° West 306 352 15,800 -836 Descending Salt Lake Center
Sun 03:51:19 PM 40.2561 -111.7772 320° Northwest 314 361 14,300 -1,512 Descending Salt Lake Center
Sun 03:52:25 PM 40.3303 -111.8364 329° Northwest 291 335 12,600 -1,606 Descending Salt Lake Center
Sun 03:53:26 PM 40.3981 -111.8950 327° Northwest 283 326 10,900 -1,219 Descending Salt Lake Center
Sun 03:54:33 PM 40.4742 -111.9311 340° North 257 296 10,000 -776 Descending Salt Lake Center
Sun 03:55:22 PM 40.5314 -111.9372 355° North 250 288 9,400 -831 Descending Salt Lake Center
Sun 03:55:38 PM 40.5483 -111.9361 North 253 291 9,100 -1,075 Descending Salt Lake Center
Sun 03:56:29 PM 40.6061 -111.9456 353° North 249 287 8,200 -1,059 Descending Salt Lake Center

Login

Don't have an account? Register now (free) for customized features, flight alerts, and more!